House, New Mexico
Current Conditions -  °F | °C
As of 8:56 AM on Friday 24 Oct 2014 (Local Time) from K4MR Reporting Station
Clear Clear  
Wind Chill: 60°   Ceiling: Unl
Heat Index: 60°   Visibility: 10mi
Dew Point: 42°   Wind: 15mph
Humidity: 50%   Direction: 270°W
Pressure: 30.23"   Gusts: 21mph
Location:  34.65°N, 103.9°W
Report Text: K4MR 241456Z AUTO 27013G18KT 10SM CLR 16/05 A3023 RMK AO2 SLP195 T01560053 52012
Loading
Personal Weather Stations






























Interactive Weather Map
Tropical Storm Tracking
New forecast layout! Learn more

10-Day Weather Forecast

Advertisements
Track Severe Weather on mobile